sensor_id;sensor_type;location;lat;lon;timestamp;P1;durP1;ratioP1;P2;durP2;ratioP2
9160;SDS011;4615;51.340;8.288;2022-12-07T00:00:51;16.08;;;14.57;;
9160;SDS011;4615;51.340;8.288;2022-12-07T00:03:18;16.63;;;15.10;;
9160;SDS011;4615;51.340;8.288;2022-12-07T00:05:44;16.52;;;15.02;;
9160;SDS011;4615;51.340;8.288;2022-12-07T00:08:11;16.88;;;15.30;;
9160;SDS011;4615;51.340;8.288;2022-12-07T00:10:37;18.58;;;16.77;;
9160;SDS011;4615;51.340;8.288;2022-12-07T00:13:05;18.20;;;16.50;;
9160;SDS011;4615;51.340;8.288;2022-12-07T00:15:33;18.13;;;16.52;;
9160;SDS011;4615;51.340;8.288;2022-12-07T00:17:59;20.75;;;18.85;;
9160;SDS011;4615;51.340;8.288;2022-12-07T00:20:26;18.77;;;17.00;;
9160;SDS011;4615;51.340;8.288;2022-12-07T00:22:52;17.58;;;15.90;;
9160;SDS011;4615;51.340;8.288;2022-12-07T00:25:19;16.88;;;15.27;;
9160;SDS011;4615;51.340;8.288;2022-12-07T00:27:45;17.27;;;15.68;;
9160;SDS011;4615;51.340;8.288;2022-12-07T00:30:13;17.67;;;16.08;;
9160;SDS011;4615;51.340;8.288;2022-12-07T00:32:40;17.05;;;15.45;;
9160;SDS011;4615;51.340;8.288;2022-12-07T00:35:06;22.23;;;20.03;;
9160;SDS011;4615;51.340;8.288;2022-12-07T00:37:33;22.77;;;20.57;;
9160;SDS011;4615;51.340;8.288;2022-12-07T00:39:59;24.33;;;21.92;;
9160;SDS011;4615;51.340;8.288;2022-12-07T00:42:25;28.38;;;25.38;;
9160;SDS011;4615;51.340;8.288;2022-12-07T00:44:52;28.75;;;25.75;;
9160;SDS011;4615;51.340;8.288;2022-12-07T00:47:20;26.23;;;23.52;;
9160;SDS011;4615;51.340;8.288;2022-12-07T00:49:46;30.08;;;25.80;;
9160;SDS011;4615;51.340;8.288;2022-12-07T00:52:12;29.75;;;26.55;;
9160;SDS011;4615;51.340;8.288;2022-12-07T00:54:39;31.25;;;27.95;;
9160;SDS011;4615;51.340;8.288;2022-12-07T00:57:05;31.60;;;28.20;;
9160;SDS011;4615;51.340;8.288;2022-12-07T00:59:32;32.17;;;28.63;;
9160;SDS011;4615;51.340;8.288;2022-12-07T01:01:58;31.15;;;27.58;;
9160;SDS011;4615;51.340;8.288;2022-12-07T01:04:26;31.30;;;27.73;;
9160;SDS011;4615;51.340;8.288;2022-12-07T01:06:53;31.20;;;27.65;;
9160;SDS011;4615;51.340;8.288;2022-12-07T01:09:19;33.45;;;29.83;;
9160;SDS011;4615;51.340;8.288;2022-12-07T01:11:45;31.67;;;27.60;;
9160;SDS011;4615;51.340;8.288;2022-12-07T01:14:12;30.20;;;26.90;;
9160;SDS011;4615;51.340;8.288;2022-12-07T01:16:38;29.30;;;26.17;;
9160;SDS011;4615;51.340;8.288;2022-12-07T01:19:05;28.65;;;25.77;;
9160;SDS011;4615;51.340;8.288;2022-12-07T01:21:33;29.27;;;26.47;;
9160;SDS011;4615;51.340;8.288;2022-12-07T01:24:02;30.25;;;27.05;;
9160;SDS011;4615;51.340;8.288;2022-12-07T01:26:29;30.95;;;27.75;;
9160;SDS011;4615;51.340;8.288;2022-12-07T01:28:56;31.00;;;27.90;;
9160;SDS011;4615;51.340;8.288;2022-12-07T01:31:24;33.05;;;29.65;;
9160;SDS011;4615;51.340;8.288;2022-12-07T01:33:52;33.83;;;30.42;;
9160;SDS011;4615;51.340;8.288;2022-12-07T01:36:19;34.45;;;30.70;;
9160;SDS011;4615;51.340;8.288;2022-12-07T01:38:48;34.95;;;31.25;;
9160;SDS011;4615;51.340;8.288;2022-12-07T01:41:16;34.88;;;31.08;;
9160;SDS011;4615;51.340;8.288;2022-12-07T01:46:24;34.95;;;31.30;;
9160;SDS011;4615;51.340;8.288;2022-12-07T01:48:50;35.60;;;32.10;;
9160;SDS011;4615;51.340;8.288;2022-12-07T01:51:16;36.50;;;32.60;;
9160;SDS011;4615;51.340;8.288;2022-12-07T01:53:43;33.22;;;29.90;;
9160;SDS011;4615;51.340;8.288;2022-12-07T01:56:14;34.08;;;30.67;;
9160;SDS011;4615;51.340;8.288;2022-12-07T01:58:43;34.03;;;30.73;;
9160;SDS011;4615;51.340;8.288;2022-12-07T02:01:09;31.42;;;28.23;;
9160;SDS011;4615;51.340;8.288;2022-12-07T02:03:36;31.23;;;28.08;;
9160;SDS011;4615;51.340;8.288;2022-12-07T02:06:04;28.83;;;26.02;;
9160;SDS011;4615;51.340;8.288;2022-12-07T02:08:30;30.73;;;27.73;;
9160;SDS011;4615;51.340;8.288;2022-12-07T02:10:57;27.77;;;24.98;;
9160;SDS011;4615;51.340;8.288;2022-12-07T02:13:26;31.63;;;28.40;;
9160;SDS011;4615;51.340;8.288;2022-12-07T02:16:01;30.30;;;27.20;;
9160;SDS011;4615;51.340;8.288;2022-12-07T02:18:34;28.85;;;25.95;;
9160;SDS011;4615;51.340;8.288;2022-12-07T02:21:05;29.48;;;26.42;;
9160;SDS011;4615;51.340;8.288;2022-12-07T02:23:38;31.02;;;27.80;;
9160;SDS011;4615;51.340;8.288;2022-12-07T02:28:56;30.90;;;27.60;;
9160;SDS011;4615;51.340;8.288;2022-12-07T02:31:29;31.43;;;28.13;;
9160;SDS011;4615;51.340;8.288;2022-12-07T02:33:57;30.02;;;26.92;;
9160;SDS011;4615;51.340;8.288;2022-12-07T02:36:30;32.37;;;28.97;;
9160;SDS011;4615;51.340;8.288;2022-12-07T02:38:58;33.28;;;29.77;;
9160;SDS011;4615;51.340;8.288;2022-12-07T02:41:26;33.92;;;29.83;;
9160;SDS011;4615;51.340;8.288;2022-12-07T02:43:54;32.80;;;28.50;;
9160;SDS011;4615;51.340;8.288;2022-12-07T02:46:23;33.03;;;29.43;;
9160;SDS011;4615;51.340;8.288;2022-12-07T02:48:50;34.10;;;29.33;;
9160;SDS011;4615;51.340;8.288;2022-12-07T02:51:17;30.17;;;26.88;;
9160;SDS011;4615;51.340;8.288;2022-12-07T02:53:44;30.58;;;27.27;;
9160;SDS011;4615;51.340;8.288;2022-12-07T02:56:13;32.58;;;28.70;;
9160;SDS011;4615;51.340;8.288;2022-12-07T02:58:48;31.05;;;27.65;;
9160;SDS011;4615;51.340;8.288;2022-12-07T03:01:19;31.15;;;27.75;;
9160;SDS011;4615;51.340;8.288;2022-12-07T03:03:52;29.70;;;26.40;;
9160;SDS011;4615;51.340;8.288;2022-12-07T03:06:25;29.77;;;26.15;;
9160;SDS011;4615;51.340;8.288;2022-12-07T03:08:55;30.88;;;27.02;;
9160;SDS011;4615;51.340;8.288;2022-12-07T03:11:23;29.73;;;26.58;;
9160;SDS011;4615;51.340;8.288;2022-12-07T03:13:53;28.60;;;25.60;;
9160;SDS011;4615;51.340;8.288;2022-12-07T03:16:22;31.00;;;27.70;;
9160;SDS011;4615;51.340;8.288;2022-12-07T03:18:52;33.53;;;28.90;;
9160;SDS011;4615;51.340;8.288;2022-12-07T03:21:20;32.50;;;28.48;;
9160;SDS011;4615;51.340;8.288;2022-12-07T03:23:48;32.95;;;29.00;;
9160;SDS011;4615;51.340;8.288;2022-12-07T03:26:15;35.88;;;30.45;;
9160;SDS011;4615;51.340;8.288;2022-12-07T03:28:44;36.03;;;29.75;;
9160;SDS011;4615;51.340;8.288;2022-12-07T03:31:12;34.13;;;29.77;;
9160;SDS011;4615;51.340;8.288;2022-12-07T03:33:40;35.28;;;29.55;;
9160;SDS011;4615;51.340;8.288;2022-12-07T03:36:10;27.48;;;24.48;;
9160;SDS011;4615;51.340;8.288;2022-12-07T03:38:39;21.23;;;19.02;;
9160;SDS011;4615;51.340;8.288;2022-12-07T03:41:07;23.15;;;20.73;;
9160;SDS011;4615;51.340;8.288;2022-12-07T03:43:35;23.52;;;21.17;;
9160;SDS011;4615;51.340;8.288;2022-12-07T03:46:04;22.92;;;20.52;;
9160;SDS011;4615;51.340;8.288;2022-12-07T03:48:35;26.33;;;22.23;;
9160;SDS011;4615;51.340;8.288;2022-12-07T03:51:06;23.00;;;20.60;;
9160;SDS011;4615;51.340;8.288;2022-12-07T03:53:37;24.45;;;21.88;;
9160;SDS011;4615;51.340;8.288;2022-12-07T03:56:05;24.05;;;21.48;;
9160;SDS011;4615;51.340;8.288;2022-12-07T03:58:32;26.17;;;23.38;;
9160;SDS011;4615;51.340;8.288;2022-12-07T04:01:00;26.95;;;23.83;;
9160;SDS011;4615;51.340;8.288;2022-12-07T04:03:27;26.92;;;23.48;;
9160;SDS011;4615;51.340;8.288;2022-12-07T04:05:53;27.15;;;22.98;;
9160;SDS011;4615;51.340;8.288;2022-12-07T04:08:20;28.02;;;23.80;;
9160;SDS011;4615;51.340;8.288;2022-12-07T04:10:47;28.95;;;24.70;;
9160;SDS011;4615;51.340;8.288;2022-12-07T04:13:14;26.80;;;23.52;;
9160;SDS011;4615;51.340;8.288;2022-12-07T04:15:40;28.23;;;23.38;;
9160;SDS011;4615;51.340;8.288;2022-12-07T04:18:07;26.27;;;21.95;;
9160;SDS011;4615;51.340;8.288;2022-12-07T04:20:33;24.15;;;21.35;;
9160;SDS011;4615;51.340;8.288;2022-12-07T04:22:59;29.35;;;23.92;;
9160;SDS011;4615;51.340;8.288;2022-12-07T04:25:26;26.25;;;23.40;;
9160;SDS011;4615;51.340;8.288;2022-12-07T04:27:54;28.45;;;24.60;;
9160;SDS011;4615;51.340;8.288;2022-12-07T04:30:20;26.58;;;23.25;;
9160;SDS011;4615;51.340;8.288;2022-12-07T04:32:46;25.45;;;22.67;;
9160;SDS011;4615;51.340;8.288;2022-12-07T04:35:13;25.42;;;22.45;;
9160;SDS011;4615;51.340;8.288;2022-12-07T04:37:39;26.42;;;21.45;;
9160;SDS011;4615;51.340;8.288;2022-12-07T04:40:07;25.25;;;21.77;;
9160;SDS011;4615;51.340;8.288;2022-12-07T04:42:36;24.05;;;20.90;;
9160;SDS011;4615;51.340;8.288;2022-12-07T04:45:04;24.48;;;21.33;;
9160;SDS011;4615;51.340;8.288;2022-12-07T04:47:30;22.40;;;19.48;;
9160;SDS011;4615;51.340;8.288;2022-12-07T04:49:57;24.90;;;19.27;;
9160;SDS011;4615;51.340;8.288;2022-12-07T04:52:23;22.88;;;19.65;;
9160;SDS011;4615;51.340;8.288;2022-12-07T04:54:50;24.77;;;19.05;;
9160;SDS011;4615;51.340;8.288;2022-12-07T04:57:16;20.77;;;17.87;;
9160;SDS011;4615;51.340;8.288;2022-12-07T04:59:42;21.95;;;18.30;;
9160;SDS011;4615;51.340;8.288;2022-12-07T05:02:10;21.10;;;16.50;;
9160;SDS011;4615;51.340;8.288;2022-12-07T05:04:37;19.27;;;16.73;;
9160;SDS011;4615;51.340;8.288;2022-12-07T05:07:03;22.40;;;17.88;;
9160;SDS011;4615;51.340;8.288;2022-12-07T05:09:29;20.60;;;16.40;;
9160;SDS011;4615;51.340;8.288;2022-12-07T05:11:56;18.45;;;15.85;;
9160;SDS011;4615;51.340;8.288;2022-12-07T05:14:22;22.55;;;17.15;;
9160;SDS011;4615;51.340;8.288;2022-12-07T05:16:49;18.63;;;15.30;;
9160;SDS011;4615;51.340;8.288;2022-12-07T05:19:18;19.27;;;15.70;;
9160;SDS011;4615;51.340;8.288;2022-12-07T05:21:45;20.80;;;14.85;;
9160;SDS011;4615;51.340;8.288;2022-12-07T05:24:12;20.70;;;14.80;;
9160;SDS011;4615;51.340;8.288;2022-12-07T05:26:39;21.58;;;15.30;;
9160;SDS011;4615;51.340;8.288;2022-12-07T05:29:05;21.55;;;15.93;;
9160;SDS011;4615;51.340;8.288;2022-12-07T05:31:32;19.42;;;15.27;;
9160;SDS011;4615;51.340;8.288;2022-12-07T05:33:59;18.77;;;14.57;;
9160;SDS011;4615;51.340;8.288;2022-12-07T05:36:26;19.88;;;14.63;;
9160;SDS011;4615;51.340;8.288;2022-12-07T05:38:56;20.05;;;15.25;;
9160;SDS011;4615;51.340;8.288;2022-12-07T05:41:22;19.08;;;15.10;;
9160;SDS011;4615;51.340;8.288;2022-12-07T05:44:06;16.93;;;13.77;;
9160;SDS011;4615;51.340;8.288;2022-12-07T05:46:32;19.98;;;14.70;;
9160;SDS011;4615;51.340;8.288;2022-12-07T05:48:59;19.23;;;14.55;;
9160;SDS011;4615;51.340;8.288;2022-12-07T05:51:27;17.92;;;13.65;;
9160;SDS011;4615;51.340;8.288;2022-12-07T05:53:53;16.80;;;13.52;;
9160;SDS011;4615;51.340;8.288;2022-12-07T05:56:20;16.02;;;12.35;;
9160;SDS011;4615;51.340;8.288;2022-12-07T05:58:46;17.20;;;13.25;;
9160;SDS011;4615;51.340;8.288;2022-12-07T06:01:30;17.27;;;12.50;;
9160;SDS011;4615;51.340;8.288;2022-12-07T06:03:57;19.38;;;13.77;;
9160;SDS011;4615;51.340;8.288;2022-12-07T06:06:23;17.02;;;13.32;;
9160;SDS011;4615;51.340;8.288;2022-12-07T06:08:51;17.08;;;13.77;;
9160;SDS011;4615;51.340;8.288;2022-12-07T06:11:17;16.25;;;12.43;;
9160;SDS011;4615;51.340;8.288;2022-12-07T06:14:01;18.17;;;12.52;;
9160;SDS011;4615;51.340;8.288;2022-12-07T06:16:27;17.20;;;12.35;;
9160;SDS011;4615;51.340;8.288;2022-12-07T06:18:54;16.42;;;13.18;;
9160;SDS011;4615;51.340;8.288;2022-12-07T06:21:20;17.95;;;13.57;;
9160;SDS011;4615;51.340;8.288;2022-12-07T06:23:47;18.88;;;13.95;;
9160;SDS011;4615;51.340;8.288;2022-12-07T06:26:15;16.27;;;12.93;;
9160;SDS011;4615;51.340;8.288;2022-12-07T06:28:41;19.20;;;13.90;;
9160;SDS011;4615;51.340;8.288;2022-12-07T06:31:07;17.67;;;13.45;;
9160;SDS011;4615;51.340;8.288;2022-12-07T06:33:34;18.67;;;14.40;;
9160;SDS011;4615;51.340;8.288;2022-12-07T06:36:00;17.60;;;13.55;;
9160;SDS011;4615;51.340;8.288;2022-12-07T06:38:27;17.83;;;13.55;;
9160;SDS011;4615;51.340;8.288;2022-12-07T06:40:53;17.00;;;13.13;;
9160;SDS011;4615;51.340;8.288;2022-12-07T06:43:21;15.32;;;12.30;;
9160;SDS011;4615;51.340;8.288;2022-12-07T06:45:47;16.02;;;12.77;;
9160;SDS011;4615;51.340;8.288;2022-12-07T06:48:14;18.65;;;13.85;;
9160;SDS011;4615;51.340;8.288;2022-12-07T06:50:40;18.45;;;13.75;;
9160;SDS011;4615;51.340;8.288;2022-12-07T06:53:07;19.48;;;14.13;;
9160;SDS011;4615;51.340;8.288;2022-12-07T06:55:33;17.60;;;13.73;;
9160;SDS011;4615;51.340;8.288;2022-12-07T06:58:00;19.00;;;13.25;;
9160;SDS011;4615;51.340;8.288;2022-12-07T07:00:28;17.40;;;13.52;;
9160;SDS011;4615;51.340;8.288;2022-12-07T07:02:54;15.30;;;13.00;;
9160;SDS011;4615;51.340;8.288;2022-12-07T07:05:21;19.40;;;13.13;;
9160;SDS011;4615;51.340;8.288;2022-12-07T07:07:48;18.20;;;12.75;;
9160;SDS011;4615;51.340;8.288;2022-12-07T07:10:14;15.20;;;12.43;;
9160;SDS011;4615;51.340;8.288;2022-12-07T07:12:41;16.40;;;12.75;;
9160;SDS011;4615;51.340;8.288;2022-12-07T07:15:07;16.30;;;11.70;;
9160;SDS011;4615;51.340;8.288;2022-12-07T07:17:35;16.00;;;12.43;;
9160;SDS011;4615;51.340;8.288;2022-12-07T07:20:02;18.17;;;12.65;;
9160;SDS011;4615;51.340;8.288;2022-12-07T07:22:29;16.02;;;11.48;;
9160;SDS011;4615;51.340;8.288;2022-12-07T07:24:55;15.43;;;11.02;;
9160;SDS011;4615;51.340;8.288;2022-12-07T07:27:21;17.20;;;12.27;;
9160;SDS011;4615;51.340;8.288;2022-12-07T07:29:48;18.58;;;12.75;;
9160;SDS011;4615;51.340;8.288;2022-12-07T07:32:14;18.95;;;12.50;;
9160;SDS011;4615;51.340;8.288;2022-12-07T07:34:42;15.38;;;11.50;;
9160;SDS011;4615;51.340;8.288;2022-12-07T07:37:08;17.92;;;12.30;;
9160;SDS011;4615;51.340;8.288;2022-12-07T07:39:36;17.57;;;12.30;;
9160;SDS011;4615;51.340;8.288;2022-12-07T07:42:02;19.13;;;12.60;;
9160;SDS011;4615;51.340;8.288;2022-12-07T07:44:28;18.98;;;11.63;;
9160;SDS011;4615;51.340;8.288;2022-12-07T07:46:55;18.35;;;12.88;;
9160;SDS011;4615;51.340;8.288;2022-12-07T07:49:21;17.03;;;12.20;;
9160;SDS011;4615;51.340;8.288;2022-12-07T07:51:49;16.45;;;13.07;;
9160;SDS011;4615;51.340;8.288;2022-12-07T07:54:15;19.67;;;13.57;;
9160;SDS011;4615;51.340;8.288;2022-12-07T07:56:42;17.08;;;12.77;;
9160;SDS011;4615;51.340;8.288;2022-12-07T07:59:08;14.85;;;11.75;;
9160;SDS011;4615;51.340;8.288;2022-12-07T08:01:35;18.40;;;12.73;;
9160;SDS011;4615;51.340;8.288;2022-12-07T08:04:01;18.08;;;13.48;;
9160;SDS011;4615;51.340;8.288;2022-12-07T08:06:28;14.43;;;12.85;;
9160;SDS011;4615;51.340;8.288;2022-12-07T08:08:55;17.65;;;13.45;;
9160;SDS011;4615;51.340;8.288;2022-12-07T08:11:23;14.73;;;11.98;;
9160;SDS011;4615;51.340;8.288;2022-12-07T08:13:49;15.18;;;11.07;;
9160;SDS011;4615;51.340;8.288;2022-12-07T08:16:16;15.80;;;11.13;;
9160;SDS011;4615;51.340;8.288;2022-12-07T08:18:42;15.57;;;11.23;;
9160;SDS011;4615;51.340;8.288;2022-12-07T08:21:09;14.45;;;11.45;;
9160;SDS011;4615;51.340;8.288;2022-12-07T08:23:36;16.48;;;12.15;;
9160;SDS011;4615;51.340;8.288;2022-12-07T08:26:06;18.10;;;12.30;;
9160;SDS011;4615;51.340;8.288;2022-12-07T08:28:32;17.42;;;11.93;;
9160;SDS011;4615;51.340;8.288;2022-12-07T08:30:59;18.83;;;11.57;;
9160;SDS011;4615;51.340;8.288;2022-12-07T08:33:26;15.10;;;10.95;;
9160;SDS011;4615;51.340;8.288;2022-12-07T08:35:52;16.77;;;11.55;;
9160;SDS011;4615;51.340;8.288;2022-12-07T08:38:19;18.33;;;12.10;;
9160;SDS011;4615;51.340;8.288;2022-12-07T08:40:53;18.25;;;11.82;;
9160;SDS011;4615;51.340;8.288;2022-12-07T08:43:20;16.23;;;11.65;;
9160;SDS011;4615;51.340;8.288;2022-12-07T08:45:47;14.63;;;12.10;;
9160;SDS011;4615;51.340;8.288;2022-12-07T08:48:14;16.67;;;11.77;;
9160;SDS011;4615;51.340;8.288;2022-12-07T08:50:43;18.23;;;12.60;;
9160;SDS011;4615;51.340;8.288;2022-12-07T08:53:09;15.80;;;12.20;;
9160;SDS011;4615;51.340;8.288;2022-12-07T08:55:36;17.30;;;12.25;;
9160;SDS011;4615;51.340;8.288;2022-12-07T08:58:02;16.92;;;11.18;;
9160;SDS011;4615;51.340;8.288;2022-12-07T09:00:30;17.38;;;11.68;;
9160;SDS011;4615;51.340;8.288;2022-12-07T09:02:57;15.65;;;10.65;;
9160;SDS011;4615;51.340;8.288;2022-12-07T09:05:23;13.68;;;9.82;;
9160;SDS011;4615;51.340;8.288;2022-12-07T09:07:50;16.30;;;11.02;;
9160;SDS011;4615;51.340;8.288;2022-12-07T09:10:17;16.77;;;10.85;;
9160;SDS011;4615;51.340;8.288;2022-12-07T09:12:44;15.48;;;10.75;;
9160;SDS011;4615;51.340;8.288;2022-12-07T09:15:10;12.30;;;9.30;;
9160;SDS011;4615;51.340;8.288;2022-12-07T09:17:38;15.20;;;10.07;;
9160;SDS011;4615;51.340;8.288;2022-12-07T09:20:05;18.00;;;11.10;;
9160;SDS011;4615;51.340;8.288;2022-12-07T09:22:32;16.00;;;10.75;;
9160;SDS011;4615;51.340;8.288;2022-12-07T09:24:59;15.73;;;10.57;;
9160;SDS011;4615;51.340;8.288;2022-12-07T09:27:26;15.70;;;10.20;;
9160;SDS011;4615;51.340;8.288;2022-12-07T09:29:52;15.75;;;9.40;;
9160;SDS011;4615;51.340;8.288;2022-12-07T09:32:19;15.40;;;9.50;;
9160;SDS011;4615;51.340;8.288;2022-12-07T09:34:47;15.23;;;9.63;;
9160;SDS011;4615;51.340;8.288;2022-12-07T09:37:13;13.90;;;9.50;;
9160;SDS011;4615;51.340;8.288;2022-12-07T09:39:40;16.55;;;10.57;;
9160;SDS011;4615;51.340;8.288;2022-12-07T09:42:06;15.52;;;9.07;;
9160;SDS011;4615;51.340;8.288;2022-12-07T09:44:35;14.20;;;9.63;;
9160;SDS011;4615;51.340;8.288;2022-12-07T09:47:02;14.90;;;7.80;;
9160;SDS011;4615;51.340;8.288;2022-12-07T09:49:29;16.33;;;8.65;;
9160;SDS011;4615;51.340;8.288;2022-12-07T09:52:01;14.10;;;8.52;;
9160;SDS011;4615;51.340;8.288;2022-12-07T09:54:28;12.60;;;8.20;;
9160;SDS011;4615;51.340;8.288;2022-12-07T09:56:56;13.23;;;8.47;;
9160;SDS011;4615;51.340;8.288;2022-12-07T09:59:22;12.63;;;8.00;;
9160;SDS011;4615;51.340;8.288;2022-12-07T10:01:49;12.00;;;7.70;;
9160;SDS011;4615;51.340;8.288;2022-12-07T10:04:16;12.23;;;7.50;;
9160;SDS011;4615;51.340;8.288;2022-12-07T10:06:44;12.63;;;7.80;;
9160;SDS011;4615;51.340;8.288;2022-12-07T10:09:15;15.68;;;7.97;;
9160;SDS011;4615;51.340;8.288;2022-12-07T10:14:26;12.25;;;7.50;;
9160;SDS011;4615;51.340;8.288;2022-12-07T10:16:53;12.23;;;7.65;;
9160;SDS011;4615;51.340;8.288;2022-12-07T10:19:22;12.20;;;7.43;;
9160;SDS011;4615;51.340;8.288;2022-12-07T10:22:02;13.85;;;7.07;;
9160;SDS011;4615;51.340;8.288;2022-12-07T10:24:30;12.13;;;6.97;;
9160;SDS011;4615;51.340;8.288;2022-12-07T10:26:57;12.25;;;7.63;;
9160;SDS011;4615;51.340;8.288;2022-12-07T10:29:24;12.20;;;6.97;;
9160;SDS011;4615;51.340;8.288;2022-12-07T10:31:53;9.63;;;6.70;;
9160;SDS011;4615;51.340;8.288;2022-12-07T10:34:22;12.52;;;6.95;;
9160;SDS011;4615;51.340;8.288;2022-12-07T10:36:49;11.77;;;7.00;;
9160;SDS011;4615;51.340;8.288;2022-12-07T10:39:17;12.85;;;7.13;;
9160;SDS011;4615;51.340;8.288;2022-12-07T10:41:53;14.65;;;7.50;;
9160;SDS011;4615;51.340;8.288;2022-12-07T10:44:21;13.10;;;7.22;;
9160;SDS011;4615;51.340;8.288;2022-12-07T10:46:58;11.50;;;7.13;;
9160;SDS011;4615;51.340;8.288;2022-12-07T10:49:38;11.95;;;6.60;;
9160;SDS011;4615;51.340;8.288;2022-12-07T10:52:09;12.32;;;6.38;;
9160;SDS011;4615;51.340;8.288;2022-12-07T10:54:40;13.05;;;6.95;;
9160;SDS011;4615;51.340;8.288;2022-12-07T10:57:17;12.90;;;6.88;;
9160;SDS011;4615;51.340;8.288;2022-12-07T10:59:53;12.45;;;7.20;;
9160;SDS011;4615;51.340;8.288;2022-12-07T11:02:26;13.68;;;6.80;;
9160;SDS011;4615;51.340;8.288;2022-12-07T11:04:59;9.80;;;6.20;;
9160;SDS011;4615;51.340;8.288;2022-12-07T11:07:34;11.47;;;6.73;;
9160;SDS011;4615;51.340;8.288;2022-12-07T11:10:03;12.57;;;7.07;;
9160;SDS011;4615;51.340;8.288;2022-12-07T11:12:40;11.05;;;6.97;;
9160;SDS011;4615;51.340;8.288;2022-12-07T11:15:12;11.13;;;6.93;;
9160;SDS011;4615;51.340;8.288;2022-12-07T11:17:42;8.25;;;5.50;;
9160;SDS011;4615;51.340;8.288;2022-12-07T11:20:12;10.95;;;6.15;;
9160;SDS011;4615;51.340;8.288;2022-12-07T11:22:44;8.23;;;5.38;;
9160;SDS011;4615;51.340;8.288;2022-12-07T11:25:15;11.45;;;5.72;;
9160;SDS011;4615;51.340;8.288;2022-12-07T11:27:46;10.73;;;5.90;;
9160;SDS011;4615;51.340;8.288;2022-12-07T11:30:16;12.20;;;6.25;;
9160;SDS011;4615;51.340;8.288;2022-12-07T11:33:04;6.75;;;5.00;;
9160;SDS011;4615;51.340;8.288;2022-12-07T11:35:38;9.25;;;5.05;;
9160;SDS011;4615;51.340;8.288;2022-12-07T11:38:08;9.93;;;5.80;;
9160;SDS011;4615;51.340;8.288;2022-12-07T11:40:36;10.23;;;6.03;;
9160;SDS011;4615;51.340;8.288;2022-12-07T11:43:05;11.75;;;6.47;;
9160;SDS011;4615;51.340;8.288;2022-12-07T11:45:34;9.85;;;6.00;;
9160;SDS011;4615;51.340;8.288;2022-12-07T11:48:01;10.75;;;6.03;;
9160;SDS011;4615;51.340;8.288;2022-12-07T11:50:32;10.50;;;6.20;;
9160;SDS011;4615;51.340;8.288;2022-12-07T11:53:00;11.27;;;6.73;;
9160;SDS011;4615;51.340;8.288;2022-12-07T11:55:29;9.07;;;5.45;;
9160;SDS011;4615;51.340;8.288;2022-12-07T11:57:58;9.18;;;6.07;;
9160;SDS011;4615;51.340;8.288;2022-12-07T12:00:28;10.02;;;6.65;;
9160;SDS011;4615;51.340;8.288;2022-12-07T12:02:56;9.75;;;6.65;;
9160;SDS011;4615;51.340;8.288;2022-12-07T12:05:24;9.97;;;6.63;;
9160;SDS011;4615;51.340;8.288;2022-12-07T12:07:52;10.63;;;6.60;;
9160;SDS011;4615;51.340;8.288;2022-12-07T12:10:23;8.90;;;6.18;;
9160;SDS011;4615;51.340;8.288;2022-12-07T12:13:01;9.65;;;6.38;;
9160;SDS011;4615;51.340;8.288;2022-12-07T12:15:35;10.88;;;7.28;;
9160;SDS011;4615;51.340;8.288;2022-12-07T12:20:46;11.27;;;7.47;;
9160;SDS011;4615;51.340;8.288;2022-12-07T12:23:14;12.23;;;7.60;;
9160;SDS011;4615;51.340;8.288;2022-12-07T12:25:44;11.25;;;7.35;;
9160;SDS011;4615;51.340;8.288;2022-12-07T12:28:22;10.55;;;6.78;;
9160;SDS011;4615;51.340;8.288;2022-12-07T12:31:05;12.80;;;7.75;;
9160;SDS011;4615;51.340;8.288;2022-12-07T12:33:32;11.73;;;8.15;;
9160;SDS011;4615;51.340;8.288;2022-12-07T12:38:47;12.48;;;8.15;;
9160;SDS011;4615;51.340;8.288;2022-12-07T12:43:55;12.77;;;8.25;;
9160;SDS011;4615;51.340;8.288;2022-12-07T12:55:00;13.13;;;9.00;;
9160;SDS011;4615;51.340;8.288;2022-12-07T12:57:28;14.10;;;9.07;;
9160;SDS011;4615;51.340;8.288;2022-12-07T12:59:56;13.82;;;9.50;;
9160;SDS011;4615;51.340;8.288;2022-12-07T13:02:23;13.25;;;9.48;;
9160;SDS011;4615;51.340;8.288;2022-12-07T13:04:52;12.13;;;8.70;;
9160;SDS011;4615;51.340;8.288;2022-12-07T13:10:08;11.98;;;8.63;;
9160;SDS011;4615;51.340;8.288;2022-12-07T13:12:54;12.85;;;8.77;;
9160;SDS011;4615;51.340;8.288;2022-12-07T13:15:31;12.93;;;8.90;;
9160;SDS011;4615;51.340;8.288;2022-12-07T13:17:58;9.90;;;8.70;;
9160;SDS011;4615;51.340;8.288;2022-12-07T13:20:48;13.00;;;8.55;;
9160;SDS011;4615;51.340;8.288;2022-12-07T13:23:16;11.80;;;8.98;;
9160;SDS011;4615;51.340;8.288;2022-12-07T13:28:35;15.45;;;10.13;;
9160;SDS011;4615;51.340;8.288;2022-12-07T13:31:11;14.45;;;8.77;;
9160;SDS011;4615;51.340;8.288;2022-12-07T13:33:40;13.93;;;9.27;;
9160;SDS011;4615;51.340;8.288;2022-12-07T13:36:10;14.20;;;9.18;;
9160;SDS011;4615;51.340;8.288;2022-12-07T13:38:47;12.07;;;8.40;;
9160;SDS011;4615;51.340;8.288;2022-12-07T13:41:15;12.50;;;8.57;;
9160;SDS011;4615;51.340;8.288;2022-12-07T13:43:44;15.48;;;10.77;;
9160;SDS011;4615;51.340;8.288;2022-12-07T13:46:11;12.45;;;8.32;;
9160;SDS011;4615;51.340;8.288;2022-12-07T13:48:43;13.43;;;9.02;;
9160;SDS011;4615;51.340;8.288;2022-12-07T13:51:16;12.45;;;8.18;;
9160;SDS011;4615;51.340;8.288;2022-12-07T13:53:45;13.15;;;8.48;;
9160;SDS011;4615;51.340;8.288;2022-12-07T13:56:12;14.07;;;8.88;;
9160;SDS011;4615;51.340;8.288;2022-12-07T13:58:40;12.05;;;8.50;;
9160;SDS011;4615;51.340;8.288;2022-12-07T14:01:08;14.52;;;8.80;;
9160;SDS011;4615;51.340;8.288;2022-12-07T14:03:34;10.97;;;8.73;;
9160;SDS011;4615;51.340;8.288;2022-12-07T14:06:15;14.93;;;9.45;;
9160;SDS011;4615;51.340;8.288;2022-12-07T14:08:42;11.77;;;9.07;;
9160;SDS011;4615;51.340;8.288;2022-12-07T14:11:10;13.93;;;10.20;;
9160;SDS011;4615;51.340;8.288;2022-12-07T14:13:39;12.70;;;9.50;;
9160;SDS011;4615;51.340;8.288;2022-12-07T14:16:18;16.30;;;9.75;;
9160;SDS011;4615;51.340;8.288;2022-12-07T14:18:45;13.90;;;9.57;;
9160;SDS011;4615;51.340;8.288;2022-12-07T14:21:14;12.88;;;9.13;;
9160;SDS011;4615;51.340;8.288;2022-12-07T14:23:41;13.50;;;9.17;;
9160;SDS011;4615;51.340;8.288;2022-12-07T14:26:09;12.65;;;9.60;;
9160;SDS011;4615;51.340;8.288;2022-12-07T14:28:38;14.82;;;10.05;;
9160;SDS011;4615;51.340;8.288;2022-12-07T14:31:07;14.40;;;11.98;;
9160;SDS011;4615;51.340;8.288;2022-12-07T14:33:37;14.50;;;10.40;;
9160;SDS011;4615;51.340;8.288;2022-12-07T14:36:04;13.18;;;9.63;;
9160;SDS011;4615;51.340;8.288;2022-12-07T14:38:30;12.60;;;11.15;;
9160;SDS011;4615;51.340;8.288;2022-12-07T14:40:57;15.35;;;10.90;;
9160;SDS011;4615;51.340;8.288;2022-12-07T14:43:44;13.07;;;9.13;;
9160;SDS011;4615;51.340;8.288;2022-12-07T14:46:10;14.57;;;9.02;;
9160;SDS011;4615;51.340;8.288;2022-12-07T14:48:38;12.57;;;8.67;;
9160;SDS011;4615;51.340;8.288;2022-12-07T14:51:04;12.85;;;8.88;;
9160;SDS011;4615;51.340;8.288;2022-12-07T14:53:33;13.50;;;9.38;;
9160;SDS011;4615;51.340;8.288;2022-12-07T14:56:00;13.02;;;9.10;;
9160;SDS011;4615;51.340;8.288;2022-12-07T14:58:26;10.65;;;8.40;;
9160;SDS011;4615;51.340;8.288;2022-12-07T15:00:52;13.85;;;10.52;;
9160;SDS011;4615;51.340;8.288;2022-12-07T15:03:19;10.57;;;9.37;;
9160;SDS011;4615;51.340;8.288;2022-12-07T15:05:46;12.65;;;9.23;;
9160;SDS011;4615;51.340;8.288;2022-12-07T15:08:13;14.30;;;8.98;;
9160;SDS011;4615;51.340;8.288;2022-12-07T15:10:40;11.93;;;9.18;;
9160;SDS011;4615;51.340;8.288;2022-12-07T15:13:06;14.13;;;7.93;;
9160;SDS011;4615;51.340;8.288;2022-12-07T15:15:51;10.77;;;8.83;;
9160;SDS011;4615;51.340;8.288;2022-12-07T15:18:18;10.68;;;7.72;;
9160;SDS011;4615;51.340;8.288;2022-12-07T15:20:46;10.85;;;8.32;;
9160;SDS011;4615;51.340;8.288;2022-12-07T15:23:13;10.07;;;8.30;;
9160;SDS011;4615;51.340;8.288;2022-12-07T15:25:40;11.50;;;8.45;;
9160;SDS011;4615;51.340;8.288;2022-12-07T15:28:07;11.40;;;8.43;;
9160;SDS011;4615;51.340;8.288;2022-12-07T15:30:33;13.25;;;9.52;;